createdAt,value
2022-08-21T00:00:32.524Z,17.74
2022-08-21T00:01:32.529Z,17.74
2022-08-21T00:02:32.566Z,17.78
2022-08-21T00:03:32.469Z,17.81
2022-08-21T00:04:32.472Z,17.90
2022-08-21T00:05:32.472Z,17.97
2022-08-21T00:06:32.464Z,18.07
2022-08-21T00:07:32.438Z,18.14
2022-08-21T00:08:32.422Z,18.25
2022-08-21T00:09:32.416Z,18.30
2022-08-21T00:10:32.379Z,18.35
2022-08-21T00:11:32.364Z,18.39
2022-08-21T00:12:32.359Z,18.41
2022-08-21T00:13:32.383Z,18.44
2022-08-21T00:14:32.359Z,18.48
2022-08-21T00:15:32.336Z,18.51
2022-08-21T00:16:32.325Z,18.50
2022-08-21T00:17:32.296Z,18.50
2022-08-21T00:18:32.328Z,18.47
2022-08-21T00:19:32.289Z,18.36
2022-08-21T00:20:32.295Z,18.25
2022-08-21T00:21:32.240Z,18.11
2022-08-21T00:22:32.294Z,17.97
2022-08-21T00:23:32.211Z,17.90
2022-08-21T00:24:32.229Z,17.81
2022-08-21T00:25:32.194Z,17.68
2022-08-21T00:26:32.175Z,17.56
2022-08-21T00:27:32.207Z,17.52
2022-08-21T00:28:32.130Z,17.54
2022-08-21T00:29:32.149Z,17.59
2022-08-21T00:30:32.106Z,17.64
2022-08-21T00:31:32.112Z,17.70
2022-08-21T00:32:32.093Z,17.74
2022-08-21T00:33:32.094Z,17.78
2022-08-21T00:34:32.075Z,17.84
2022-08-21T00:35:32.056Z,17.87
2022-08-21T00:36:32.038Z,17.86
2022-08-21T00:37:32.035Z,17.81
2022-08-21T00:38:32.014Z,17.79
2022-08-21T00:39:32.011Z,17.72
2022-08-21T00:40:32.013Z,17.64
2022-08-21T00:41:38.276Z,17.63
2022-08-21T00:42:31.968Z,17.63
2022-08-21T00:43:31.976Z,17.63
2022-08-21T00:44:31.945Z,17.64
2022-08-21T00:45:31.950Z,17.71
2022-08-21T00:46:31.948Z,17.72
2022-08-21T00:47:31.929Z,17.74
2022-08-21T00:48:31.867Z,17.75
2022-08-21T00:49:31.873Z,17.74
2022-08-21T00:50:31.852Z,17.72
2022-08-21T00:51:31.827Z,17.71
2022-08-21T00:52:31.852Z,17.71
2022-08-21T00:53:31.792Z,17.70
2022-08-21T00:54:31.783Z,17.68
2022-08-21T00:55:31.764Z,17.66
2022-08-21T00:56:31.765Z,17.68
2022-08-21T00:57:31.762Z,17.70
2022-08-21T00:58:31.752Z,17.71
2022-08-21T00:59:31.774Z,17.74
2022-08-21T01:00:31.714Z,17.74
2022-08-21T01:01:31.721Z,17.79
2022-08-21T01:02:31.695Z,17.84
2022-08-21T01:03:31.654Z,17.92
2022-08-21T01:04:31.683Z,17.96
2022-08-21T01:05:31.636Z,17.97
2022-08-21T01:06:31.648Z,17.99
2022-08-21T01:07:31.637Z,17.97
2022-08-21T01:08:31.615Z,18.02
2022-08-21T01:09:31.575Z,18.00
2022-08-21T01:10:31.573Z,17.96
2022-08-21T01:11:31.582Z,17.93
2022-08-21T01:12:31.543Z,17.90
2022-08-21T01:13:31.571Z,17.93
2022-08-21T01:14:31.522Z,17.95
2022-08-21T01:15:31.501Z,17.93
2022-08-21T01:16:31.487Z,17.92
2022-08-21T01:17:31.517Z,17.90
2022-08-21T01:18:31.463Z,17.87
2022-08-21T01:19:31.446Z,17.84
2022-08-21T01:20:32.788Z,17.84
2022-08-21T01:21:31.407Z,17.81
2022-08-21T01:22:31.401Z,17.79
2022-08-21T01:23:31.416Z,17.77
2022-08-21T01:24:31.371Z,17.74
2022-08-21T01:25:31.367Z,17.71
2022-08-21T01:26:34.351Z,17.66
2022-08-21T01:27:31.372Z,17.64
2022-08-21T01:28:31.352Z,17.63
2022-08-21T01:29:31.317Z,17.59
2022-08-21T01:30:31.301Z,17.58
2022-08-21T01:31:31.333Z,17.56
2022-08-21T01:32:31.270Z,17.54
2022-08-21T01:33:31.308Z,17.49
2022-08-21T01:34:31.245Z,17.41
2022-08-21T01:35:31.294Z,17.34
2022-08-21T01:36:31.220Z,17.26
2022-08-21T01:37:31.201Z,17.23
2022-08-21T01:38:31.192Z,17.19
2022-08-21T01:39:31.239Z,17.21
2022-08-21T01:40:31.207Z,17.21
2022-08-21T01:41:31.151Z,17.22
2022-08-21T01:42:31.145Z,17.25
2022-08-21T01:43:35.681Z,17.30
2022-08-21T01:44:31.128Z,17.31
2022-08-21T01:45:31.130Z,17.36
2022-08-21T01:46:31.081Z,17.43
2022-08-21T01:47:31.064Z,17.41
2022-08-21T01:48:31.069Z,17.40
2022-08-21T01:49:31.075Z,17.36
2022-08-21T01:50:31.033Z,17.28
2022-08-21T01:51:31.039Z,17.25
2022-08-21T01:52:31.059Z,17.23
2022-08-21T01:53:33.278Z,17.22
2022-08-21T01:54:30.992Z,17.21
2022-08-21T01:55:30.969Z,17.23
2022-08-21T01:56:30.940Z,17.23
2022-08-21T01:57:30.962Z,17.25
2022-08-21T01:58:30.917Z,17.23
2022-08-21T01:59:30.912Z,17.16
2022-08-21T02:00:30.888Z,17.07
2022-08-21T02:01:30.907Z,17.04
2022-08-21T02:02:30.860Z,17.04
2022-08-21T02:03:35.174Z,17.07
2022-08-21T02:04:30.856Z,17.12
2022-08-21T02:05:30.861Z,17.16
2022-08-21T02:06:30.808Z,17.18
2022-08-21T02:07:30.818Z,17.19
2022-08-21T02:08:30.789Z,17.19
2022-08-21T02:09:30.786Z,17.16
2022-08-21T02:10:30.776Z,17.11
2022-08-21T02:11:30.786Z,16.97
2022-08-21T02:12:30.738Z,16.82
2022-08-21T02:13:30.753Z,16.70
2022-08-21T02:14:32.679Z,16.60
2022-08-21T02:15:30.714Z,16.49
2022-08-21T02:16:30.700Z,16.43
2022-08-21T02:17:30.671Z,16.45
2022-08-21T02:18:30.657Z,16.46
2022-08-21T02:19:30.675Z,16.48
2022-08-21T02:20:30.659Z,16.53
2022-08-21T02:21:30.626Z,16.60
2022-08-21T02:22:30.613Z,16.66
2022-08-21T02:23:30.603Z,16.71
2022-08-21T02:24:30.604Z,16.79
2022-08-21T02:25:30.559Z,16.85
2022-08-21T02:26:30.556Z,16.91
2022-08-21T02:27:30.564Z,16.97
2022-08-21T02:28:30.516Z,17.03
2022-08-21T02:29:30.504Z,17.04
2022-08-21T02:30:30.479Z,17.06
2022-08-21T02:31:30.514Z,17.03
2022-08-21T02:32:30.476Z,17.01
2022-08-21T02:33:30.447Z,16.98
2022-08-21T02:34:30.444Z,16.98
2022-08-21T02:35:30.431Z,16.96
2022-08-21T02:36:30.441Z,16.91
2022-08-21T02:37:30.418Z,16.89
2022-08-21T02:38:30.408Z,16.86
2022-08-21T02:39:30.380Z,16.86
2022-08-21T02:40:30.348Z,16.85
2022-08-21T02:41:30.363Z,16.85
2022-08-21T02:42:30.348Z,16.79
2022-08-21T02:43:30.322Z,16.76
2022-08-21T02:44:34.483Z,16.71
2022-08-21T02:45:30.298Z,16.67
2022-08-21T02:46:30.332Z,16.61
2022-08-21T02:47:30.295Z,16.57
2022-08-21T02:48:30.262Z,16.50
2022-08-21T02:49:30.236Z,16.42
2022-08-21T02:50:30.250Z,16.34
2022-08-21T02:51:30.220Z,16.33
2022-08-21T02:52:30.201Z,16.33
2022-08-21T02:53:30.191Z,16.31
2022-08-21T02:54:30.176Z,16.27
2022-08-21T02:55:30.207Z,16.27
2022-08-21T02:56:31.525Z,16.27
2022-08-21T02:57:30.149Z,16.27
2022-08-21T02:58:30.124Z,16.24
2022-08-21T02:59:30.112Z,16.21
2022-08-21T03:00:30.146Z,16.17
2022-08-21T03:01:30.129Z,16.11
2022-08-21T03:02:30.098Z,16.08
2022-08-21T03:03:30.067Z,16.07
2022-08-21T03:04:30.050Z,16.07
2022-08-21T03:05:30.052Z,16.08
2022-08-21T03:06:30.018Z,16.07
2022-08-21T03:07:29.998Z,16.02
2022-08-21T03:08:29.989Z,16.02
2022-08-21T03:09:29.991Z,16.01
2022-08-21T03:10:29.969Z,16.05
2022-08-21T03:11:30.017Z,16.09
2022-08-21T03:12:30.113Z,16.12
2022-08-21T03:13:29.926Z,16.12
2022-08-21T03:14:29.969Z,16.17
2022-08-21T03:15:29.920Z,16.21
2022-08-21T03:16:34.395Z,16.25
2022-08-21T03:17:30.278Z,16.30
2022-08-21T03:18:29.868Z,16.33
2022-08-21T03:19:29.887Z,16.38
2022-08-21T03:20:29.866Z,16.41
2022-08-21T03:21:29.833Z,16.42
2022-08-21T03:22:30.895Z,16.43
2022-08-21T03:23:32.584Z,16.41
2022-08-21T03:24:29.790Z,16.45
2022-08-21T03:25:40.679Z,16.45
2022-08-21T03:26:29.758Z,16.43
2022-08-21T03:27:29.916Z,16.42
2022-08-21T03:28:29.717Z,16.42
2022-08-21T03:29:29.744Z,16.41
2022-08-21T03:30:29.698Z,16.41
2022-08-21T03:31:29.710Z,16.39
2022-08-21T03:32:29.673Z,16.38
2022-08-21T03:33:29.722Z,16.33
2022-08-21T03:34:29.641Z,16.27
2022-08-21T03:35:29.668Z,16.23
2022-08-21T03:36:29.608Z,16.17
2022-08-21T03:37:30.249Z,16.12
2022-08-21T03:38:29.599Z,16.11
2022-08-21T03:39:29.582Z,16.11
2022-08-21T03:40:29.589Z,16.08
2022-08-21T03:41:29.575Z,16.08
2022-08-21T03:42:29.544Z,16.09
2022-08-21T03:43:32.147Z,16.07
2022-08-21T03:44:29.521Z,16.07
2022-08-21T03:45:29.545Z,16.04
2022-08-21T03:46:29.505Z,16.04
2022-08-21T03:47:29.469Z,16.02
2022-08-21T03:48:29.454Z,15.97
2022-08-21T03:49:29.449Z,15.94
2022-08-21T03:50:29.448Z,15.87
2022-08-21T03:51:29.422Z,15.83
2022-08-21T03:52:29.412Z,15.82
2022-08-21T03:53:29.396Z,15.82
2022-08-21T03:54:29.374Z,15.83
2022-08-21T03:55:29.383Z,15.84
2022-08-21T03:56:29.354Z,15.89
2022-08-21T03:57:29.394Z,15.94
2022-08-21T03:58:29.346Z,16.00
2022-08-21T03:59:29.326Z,16.02
2022-08-21T04:00:29.304Z,16.05
2022-08-21T04:01:29.345Z,16.09
2022-08-21T04:02:29.288Z,16.11
2022-08-21T04:03:29.309Z,16.12
2022-08-21T04:04:29.317Z,16.15
2022-08-21T04:05:29.240Z,16.17
2022-08-21T04:06:29.218Z,16.23
2022-08-21T04:07:29.229Z,16.24
2022-08-21T04:08:29.189Z,16.27
2022-08-21T04:09:29.172Z,16.28
2022-08-21T04:10:29.182Z,16.24
2022-08-21T04:11:29.173Z,16.20
2022-08-21T04:12:29.188Z,16.14
2022-08-21T04:13:29.263Z,16.12
2022-08-21T04:14:29.119Z,16.11
2022-08-21T04:15:29.108Z,16.08
2022-08-21T04:16:29.110Z,16.05
2022-08-21T04:17:29.084Z,16.04
2022-08-21T04:18:29.053Z,16.04
2022-08-21T04:19:29.050Z,16.02
2022-08-21T04:20:29.025Z,16.01
2022-08-21T04:21:29.056Z,16.01
2022-08-21T04:22:29.005Z,16.00
2022-08-21T04:23:28.995Z,15.97
2022-08-21T04:24:29.924Z,15.97
2022-08-21T04:25:29.005Z,15.94
2022-08-21T04:26:28.971Z,15.87
2022-08-21T04:27:28.953Z,15.72
2022-08-21T04:28:30.337Z,15.57
2022-08-21T04:29:28.921Z,15.46
2022-08-21T04:30:29.052Z,15.41
2022-08-21T04:31:28.916Z,15.31
2022-08-21T04:32:28.888Z,15.27
2022-08-21T04:33:28.865Z,15.28
2022-08-21T04:34:28.864Z,15.28
2022-08-21T04:35:28.863Z,15.31
2022-08-21T04:36:28.830Z,15.35
2022-08-21T04:37:28.825Z,15.34
2022-08-21T04:38:36.518Z,15.34
2022-08-21T04:39:29.806Z,15.31
2022-08-21T04:40:28.819Z,15.32
2022-08-21T04:41:28.754Z,15.32
2022-08-21T04:42:28.735Z,15.32
2022-08-21T04:43:28.756Z,15.34
2022-08-21T04:44:28.707Z,15.34
2022-08-21T04:45:28.692Z,15.36
2022-08-21T04:46:28.683Z,15.36
2022-08-21T04:47:41.869Z,15.29
2022-08-21T04:48:28.675Z,15.17
2022-08-21T04:49:28.666Z,15.03
2022-08-21T04:50:28.631Z,14.94
2022-08-21T04:51:28.644Z,14.86
2022-08-21T04:52:28.590Z,14.83
2022-08-21T04:53:28.596Z,14.83
2022-08-21T04:54:28.574Z,14.84
2022-08-21T04:55:28.603Z,14.88
2022-08-21T04:56:28.568Z,14.91
2022-08-21T04:57:39.715Z,14.96
2022-08-21T04:58:28.537Z,15.02
2022-08-21T04:59:28.509Z,15.02
2022-08-21T05:00:28.490Z,15.01
2022-08-21T05:01:28.568Z,15.01
2022-08-21T05:02:28.497Z,14.96
2022-08-21T05:03:28.452Z,14.92
2022-08-21T05:04:28.489Z,14.83
2022-08-21T05:05:28.445Z,14.75
2022-08-21T05:06:28.413Z,14.70
2022-08-21T05:07:42.621Z,14.69
2022-08-21T05:08:28.418Z,14.69
2022-08-21T05:09:28.396Z,14.69
2022-08-21T05:10:28.351Z,14.69
2022-08-21T05:11:28.363Z,14.70
2022-08-21T05:12:28.335Z,14.75
2022-08-21T05:13:28.350Z,14.84
2022-08-21T05:14:28.334Z,14.92
2022-08-21T05:15:28.310Z,15.02
2022-08-21T05:16:37.441Z,15.09
2022-08-21T05:17:28.285Z,15.16
2022-08-21T05:18:28.261Z,15.21
2022-08-21T05:19:28.259Z,15.31
2022-08-21T05:20:28.232Z,15.39
2022-08-21T05:21:28.207Z,15.44
2022-08-21T05:22:28.199Z,15.47
2022-08-21T05:23:28.202Z,15.51
2022-08-21T05:24:28.207Z,15.57
2022-08-21T05:25:28.359Z,15.64
2022-08-21T05:26:28.180Z,15.68
2022-08-21T05:27:28.129Z,15.69
2022-08-21T05:28:28.143Z,15.74
2022-08-21T05:29:28.141Z,15.76
2022-08-21T05:30:28.116Z,15.83
2022-08-21T05:31:28.076Z,15.89
2022-08-21T05:32:28.106Z,15.93
2022-08-21T05:33:28.053Z,15.94
2022-08-21T05:34:28.072Z,15.93
2022-08-21T05:35:28.040Z,15.89
2022-08-21T05:36:28.050Z,15.87
2022-08-21T05:37:28.014Z,15.89
2022-08-21T05:38:28.006Z,15.87
2022-08-21T05:39:27.972Z,15.83
2022-08-21T05:40:28.057Z,15.83
2022-08-21T05:41:27.991Z,15.78
2022-08-21T05:42:27.929Z,15.76
2022-08-21T05:43:27.933Z,15.78
2022-08-21T05:44:27.907Z,15.82
2022-08-21T05:45:43.115Z,15.80
2022-08-21T05:46:27.890Z,15.84
2022-08-21T05:47:27.888Z,15.89
2022-08-21T05:48:27.853Z,15.94
2022-08-21T05:49:27.868Z,15.97
2022-08-21T05:50:33.055Z,16.01
2022-08-21T05:51:27.840Z,16.05
2022-08-21T05:52:27.893Z,16.08
2022-08-21T05:53:27.785Z,16.14
2022-08-21T05:54:27.772Z,16.17
2022-08-21T05:55:27.783Z,16.25
2022-08-21T05:56:27.799Z,16.33
2022-08-21T05:57:27.738Z,16.39
2022-08-21T05:58:27.725Z,16.45
2022-08-21T05:59:27.696Z,16.52
2022-08-21T06:00:27.694Z,16.60
2022-08-21T06:01:27.730Z,16.63
2022-08-21T06:02:27.667Z,16.66
2022-08-21T06:03:27.706Z,16.71
2022-08-21T06:04:27.638Z,16.75
2022-08-21T06:05:37.289Z,16.79
2022-08-21T06:06:27.628Z,16.79
2022-08-21T06:07:27.641Z,16.81
2022-08-21T06:08:27.615Z,16.81
2022-08-21T06:09:27.583Z,16.82
2022-08-21T06:10:27.554Z,16.82
2022-08-21T06:11:29.157Z,16.85
2022-08-21T06:12:27.552Z,16.88
2022-08-21T06:13:27.523Z,16.89
2022-08-21T06:14:27.530Z,16.89
2022-08-21T06:15:27.506Z,16.89
2022-08-21T06:16:27.493Z,16.93
2022-08-21T06:17:27.473Z,16.97
2022-08-21T06:18:27.463Z,16.96
2022-08-21T06:19:27.456Z,16.97
2022-08-21T06:20:27.465Z,16.96
2022-08-21T06:21:27.421Z,16.93
2022-08-21T06:22:27.396Z,16.91
2022-08-21T06:23:31.758Z,16.89
2022-08-21T06:24:27.411Z,16.89
2022-08-21T06:25:27.357Z,16.93
2022-08-21T06:26:27.335Z,16.97
2022-08-21T06:27:27.334Z,17.00
2022-08-21T06:28:27.325Z,17.04
2022-08-21T06:29:27.362Z,17.08
2022-08-21T06:30:27.339Z,17.12
2022-08-21T06:31:27.321Z,17.15
2022-08-21T06:32:27.278Z,17.19
2022-08-21T06:33:32.359Z,17.19
2022-08-21T06:34:27.303Z,17.22
2022-08-21T06:35:27.228Z,17.25
2022-08-21T06:36:27.242Z,17.28
2022-08-21T06:37:27.241Z,17.33
2022-08-21T06:38:27.218Z,17.34
2022-08-21T06:39:30.823Z,17.38
2022-08-21T06:40:27.288Z,17.44
2022-08-21T06:41:27.289Z,17.48
2022-08-21T06:42:28.052Z,17.54
2022-08-21T06:43:39.494Z,17.58
2022-08-21T06:44:27.132Z,17.66
2022-08-21T06:45:28.334Z,17.71
2022-08-21T06:46:27.086Z,17.78
2022-08-21T06:47:27.068Z,17.81
2022-08-21T06:48:27.088Z,17.82
2022-08-21T06:49:27.088Z,17.87
2022-08-21T06:50:27.747Z,17.89
2022-08-21T06:51:27.028Z,17.93
2022-08-21T06:52:27.016Z,17.96
2022-08-21T06:53:27.007Z,17.99
2022-08-21T06:54:27.011Z,18.05
2022-08-21T06:55:29.211Z,18.05
2022-08-21T06:56:26.960Z,18.05
2022-08-21T06:57:26.936Z,18.08
2022-08-21T06:58:26.924Z,18.08
2022-08-21T06:59:26.937Z,18.12
2022-08-21T07:00:26.905Z,18.17
2022-08-21T07:01:26.925Z,18.21
2022-08-21T07:02:26.869Z,18.26
2022-08-21T07:03:26.851Z,18.33
2022-08-21T07:04:26.872Z,18.37
2022-08-21T07:05:26.838Z,18.44
2022-08-21T07:06:26.841Z,18.47
2022-08-21T07:07:26.805Z,18.50
2022-08-21T07:08:26.825Z,18.54
2022-08-21T07:09:26.787Z,18.57
2022-08-21T07:10:26.827Z,18.62
2022-08-21T07:11:26.741Z,18.65
2022-08-21T07:12:26.773Z,18.69
2022-08-21T07:13:26.767Z,18.76
2022-08-21T07:14:26.717Z,18.85
2022-08-21T07:15:26.723Z,18.90
2022-08-21T07:16:26.715Z,18.92
2022-08-21T07:17:26.675Z,18.99
2022-08-21T07:18:26.655Z,19.02
2022-08-21T07:19:26.648Z,19.06
2022-08-21T07:20:26.633Z,19.10
2022-08-21T07:21:26.647Z,19.16
2022-08-21T07:22:26.613Z,19.25
2022-08-21T07:23:26.587Z,19.32
2022-08-21T07:24:26.595Z,19.40
2022-08-21T07:25:26.569Z,19.44
2022-08-21T07:26:26.571Z,19.46
2022-08-21T07:27:26.574Z,19.48
2022-08-21T07:28:26.538Z,19.54
2022-08-21T07:29:26.524Z,19.59
2022-08-21T07:30:26.493Z,19.63
2022-08-21T07:31:26.542Z,19.69
2022-08-21T07:32:26.495Z,19.74
2022-08-21T07:33:26.474Z,19.76
2022-08-21T07:34:26.450Z,19.80
2022-08-21T07:35:26.430Z,19.84
2022-08-21T07:36:26.431Z,19.87
2022-08-21T07:37:26.417Z,19.94
2022-08-21T07:38:26.399Z,19.95
2022-08-21T07:39:26.373Z,19.99
2022-08-21T07:40:26.379Z,20.10
2022-08-21T07:41:26.350Z,20.24
2022-08-21T07:42:26.394Z,20.33
2022-08-21T07:43:26.322Z,20.41
2022-08-21T07:44:26.310Z,20.41
2022-08-21T07:45:26.338Z,20.47
2022-08-21T07:46:26.286Z,20.54
2022-08-21T07:47:41.744Z,20.61
2022-08-21T07:48:26.265Z,20.77
2022-08-21T07:49:26.287Z,20.94
2022-08-21T07:50:26.230Z,21.14
2022-08-21T07:51:26.239Z,21.34
2022-08-21T07:52:26.216Z,21.47
2022-08-21T07:53:26.193Z,21.58
2022-08-21T07:54:33.460Z,21.59
2022-08-21T07:55:26.185Z,21.72
2022-08-21T07:56:26.180Z,21.94
2022-08-21T07:57:26.143Z,22.14
2022-08-21T07:58:26.136Z,22.28
2022-08-21T07:59:26.213Z,22.37
2022-08-21T08:00:26.101Z,22.33
2022-08-21T08:01:26.144Z,22.43
2022-08-21T08:02:26.082Z,22.52
2022-08-21T08:03:28.709Z,22.61
2022-08-21T08:04:26.665Z,22.73
2022-08-21T08:05:26.062Z,22.75
2022-08-21T08:06:26.048Z,22.72
2022-08-21T08:07:26.006Z,22.61
2022-08-21T08:08:25.984Z,22.55
2022-08-21T08:09:25.993Z,22.49
2022-08-21T08:10:26.004Z,22.47
2022-08-21T08:11:25.962Z,22.57
2022-08-21T08:12:25.926Z,22.73
2022-08-21T08:13:25.960Z,22.98
2022-08-21T08:14:31.435Z,23.23
2022-08-21T08:15:25.909Z,23.53
2022-08-21T08:16:25.931Z,23.58
2022-08-21T08:17:25.919Z,23.66
2022-08-21T08:18:25.851Z,23.48
2022-08-21T08:19:25.854Z,23.35
2022-08-21T08:20:25.830Z,23.22
2022-08-21T08:21:25.868Z,23.23
2022-08-21T08:22:25.803Z,23.25
2022-08-21T08:23:25.812Z,23.38
2022-08-21T08:24:25.799Z,23.61
2022-08-21T08:25:25.759Z,23.72
2022-08-21T08:26:25.756Z,23.87
2022-08-21T08:27:25.762Z,23.95
2022-08-21T08:28:25.731Z,24.12
2022-08-21T08:29:25.737Z,24.24
2022-08-21T08:30:28.890Z,24.06
2022-08-21T08:31:25.718Z,23.98
2022-08-21T08:32:25.704Z,24.00
2022-08-21T08:33:25.677Z,24.15
2022-08-21T08:34:25.981Z,24.30
2022-08-21T08:35:25.621Z,24.30
2022-08-21T08:36:25.646Z,24.18
2022-08-21T08:37:29.484Z,24.00
2022-08-21T08:38:25.616Z,23.93
2022-08-21T08:39:26.519Z,23.97
2022-08-21T08:40:25.550Z,24.02
2022-08-21T08:41:30.673Z,24.09
2022-08-21T08:42:33.543Z,24.08
2022-08-21T08:43:25.566Z,24.28
2022-08-21T08:44:25.521Z,24.50
2022-08-21T08:45:25.534Z,24.64
2022-08-21T08:46:25.478Z,24.60
2022-08-21T08:47:25.492Z,24.49
2022-08-21T08:48:25.470Z,24.40
2022-08-21T08:49:25.459Z,24.47
2022-08-21T08:50:25.462Z,24.52
2022-08-21T08:51:25.422Z,24.39
2022-08-21T08:52:25.427Z,24.40
2022-08-21T08:53:25.425Z,24.47
2022-08-21T08:54:25.391Z,24.55
2022-08-21T08:55:27.239Z,24.78
2022-08-21T08:56:25.383Z,25.03
2022-08-21T08:57:25.365Z,25.06
2022-08-21T08:58:25.361Z,25.05
2022-08-21T08:59:25.331Z,25.18
2022-08-21T09:00:25.340Z,25.38
2022-08-21T09:01:25.356Z,25.73
2022-08-21T09:02:25.301Z,25.97
2022-08-21T09:03:25.279Z,26.07
2022-08-21T09:04:25.301Z,26.28
2022-08-21T09:05:25.265Z,26.43
2022-08-21T09:06:25.253Z,26.50
2022-08-21T09:07:25.278Z,26.47
2022-08-21T09:08:25.205Z,26.06
2022-08-21T09:09:25.206Z,25.65
2022-08-21T09:10:25.188Z,25.57
2022-08-21T09:11:25.237Z,25.45
2022-08-21T09:12:25.151Z,25.52
2022-08-21T09:13:25.132Z,25.46
2022-08-21T09:14:25.179Z,25.45
2022-08-21T09:15:25.121Z,25.52
2022-08-21T09:16:25.128Z,25.64
2022-08-21T09:17:25.088Z,25.76
2022-08-21T09:18:25.108Z,25.83
2022-08-21T09:19:25.267Z,25.88
2022-08-21T09:20:25.059Z,26.10
2022-08-21T09:21:25.034Z,26.37
2022-08-21T09:22:25.025Z,26.54
2022-08-21T09:23:25.050Z,26.65
2022-08-21T09:24:25.021Z,26.65
2022-08-21T09:25:24.999Z,26.63
2022-08-21T09:26:24.987Z,26.63
2022-08-21T09:27:24.965Z,26.66
2022-08-21T09:28:24.991Z,26.55
2022-08-21T09:29:24.942Z,26.48
2022-08-21T09:30:24.958Z,26.51
2022-08-21T09:31:24.920Z,26.65
2022-08-21T09:32:36.711Z,26.57
2022-08-21T09:33:24.881Z,26.45
2022-08-21T09:34:24.896Z,26.66
2022-08-21T09:35:24.936Z,26.87
2022-08-21T09:36:24.857Z,27.04
2022-08-21T09:37:24.852Z,27.06
2022-08-21T09:38:24.827Z,27.06
2022-08-21T09:39:24.811Z,27.09
2022-08-21T09:40:24.910Z,26.84
2022-08-21T09:41:24.802Z,26.43
2022-08-21T09:42:24.789Z,26.37
2022-08-21T09:43:24.777Z,26.29
2022-08-21T09:44:24.747Z,26.18
2022-08-21T09:45:24.749Z,26.32
2022-08-21T09:46:24.715Z,26.50
2022-08-21T09:47:26.838Z,26.67
2022-08-21T09:48:26.939Z,26.82
2022-08-21T09:49:24.677Z,26.89
2022-08-21T09:50:24.671Z,27.00
2022-08-21T09:51:24.644Z,27.19
2022-08-21T09:52:24.628Z,27.44
2022-08-21T09:53:24.668Z,27.65
2022-08-21T09:54:24.644Z,27.85
2022-08-21T09:55:24.593Z,27.85
2022-08-21T09:56:25.137Z,27.81
2022-08-21T09:57:24.564Z,27.84
2022-08-21T09:58:24.604Z,28.02
2022-08-21T09:59:24.553Z,28.11
2022-08-21T10:00:24.525Z,27.93
2022-08-21T10:01:24.627Z,27.79
2022-08-21T10:02:24.532Z,27.60
2022-08-21T10:03:24.494Z,27.50
2022-08-21T10:04:24.502Z,27.62
2022-08-21T10:05:24.494Z,27.69
2022-08-21T10:06:24.471Z,27.55
2022-08-21T10:07:24.457Z,27.47
2022-08-21T10:08:24.427Z,27.57
2022-08-21T10:09:24.406Z,27.46
2022-08-21T10:10:24.432Z,27.19
2022-08-21T10:11:24.385Z,27.10
2022-08-21T10:12:24.400Z,27.04
2022-08-21T10:13:24.359Z,26.99
2022-08-21T10:14:24.349Z,26.99
2022-08-21T10:15:24.372Z,27.06
2022-08-21T10:16:24.337Z,27.25
2022-08-21T10:17:24.308Z,27.36
2022-08-21T10:18:24.302Z,27.28
2022-08-21T10:19:24.887Z,27.14
2022-08-21T10:20:24.311Z,26.99
2022-08-21T10:21:24.301Z,26.92
2022-08-21T10:22:24.234Z,26.88
2022-08-21T10:23:24.252Z,27.00
2022-08-21T10:24:31.566Z,27.07
2022-08-21T10:25:24.214Z,27.04
2022-08-21T10:26:24.200Z,27.04
2022-08-21T10:27:24.202Z,27.07
2022-08-21T10:28:24.153Z,27.06
2022-08-21T10:29:24.154Z,26.99
2022-08-21T10:30:24.156Z,27.00
2022-08-21T10:31:24.122Z,26.94
2022-08-21T10:32:26.343Z,26.85
2022-08-21T10:33:24.093Z,26.97
2022-08-21T10:34:24.085Z,27.07
2022-08-21T10:35:24.132Z,27.14
2022-08-21T10:36:24.082Z,27.19
2022-08-21T10:37:24.098Z,27.18
2022-08-21T10:38:48.682Z,27.25
2022-08-21T10:39:35.017Z,27.39
2022-08-21T10:40:24.094Z,27.47
2022-08-21T10:41:24.017Z,27.62
2022-08-21T10:42:28.102Z,27.67
2022-08-21T10:43:23.991Z,27.77
2022-08-21T10:44:23.981Z,27.70
2022-08-21T10:45:23.944Z,27.46
2022-08-21T10:46:23.932Z,27.04
2022-08-21T10:47:23.958Z,26.85
2022-08-21T10:48:23.950Z,26.77
2022-08-21T10:49:23.917Z,26.84
2022-08-21T10:50:23.907Z,26.85
2022-08-21T10:51:28.994Z,26.81
2022-08-21T10:52:23.873Z,26.70
2022-08-21T10:53:23.866Z,26.55
2022-08-21T10:54:23.828Z,26.45
2022-08-21T10:55:23.813Z,26.33
2022-08-21T10:56:23.847Z,26.35
2022-08-21T10:57:24.118Z,26.40
2022-08-21T10:58:23.807Z,26.47
2022-08-21T10:59:23.767Z,26.55
2022-08-21T11:00:23.779Z,26.65
2022-08-21T11:01:23.792Z,26.81
2022-08-21T11:02:23.738Z,27.02
2022-08-21T11:03:23.748Z,27.02
2022-08-21T11:04:23.773Z,26.92
2022-08-21T11:05:23.725Z,26.97
2022-08-21T11:06:23.683Z,27.09
2022-08-21T11:07:23.680Z,27.09
2022-08-21T11:08:23.652Z,26.95
2022-08-21T11:09:23.678Z,27.06
2022-08-21T11:10:24.478Z,27.19
2022-08-21T11:11:23.620Z,27.31
2022-08-21T11:12:23.963Z,27.40
2022-08-21T11:13:23.584Z,27.39
2022-08-21T11:14:23.622Z,27.19
2022-08-21T11:15:28.587Z,27.12
2022-08-21T11:16:23.555Z,27.13
2022-08-21T11:17:23.531Z,27.12
2022-08-21T11:18:23.873Z,27.10
2022-08-21T11:19:23.517Z,27.07
2022-08-21T11:20:23.541Z,26.92
2022-08-21T11:21:23.506Z,26.97
2022-08-21T11:22:23.476Z,26.92
2022-08-21T11:23:23.452Z,26.85
2022-08-21T11:24:23.466Z,26.87
2022-08-21T11:25:23.429Z,26.94
2022-08-21T11:26:23.416Z,27.03
2022-08-21T11:27:23.434Z,26.99
2022-08-21T11:28:23.402Z,27.06
2022-08-21T11:29:23.394Z,27.17
2022-08-21T11:30:23.383Z,27.28
2022-08-21T11:31:23.383Z,27.31
2022-08-21T11:32:23.366Z,27.31
2022-08-21T11:33:23.341Z,27.34
2022-08-21T11:34:23.332Z,27.41
2022-08-21T11:35:23.313Z,27.37
2022-08-21T11:36:23.341Z,27.34
2022-08-21T11:37:23.285Z,27.27
2022-08-21T11:38:23.275Z,27.17
2022-08-21T11:39:23.245Z,27.09
2022-08-21T11:40:23.280Z,27.09
2022-08-21T11:41:23.249Z,27.18
2022-08-21T11:42:23.223Z,27.27
2022-08-21T11:43:23.214Z,27.27
2022-08-21T11:44:23.190Z,27.28
2022-08-21T11:45:23.171Z,27.29
2022-08-21T11:46:23.155Z,27.41
2022-08-21T11:47:23.152Z,27.57
2022-08-21T11:48:23.146Z,27.69
2022-08-21T11:49:23.158Z,27.84
2022-08-21T11:50:35.823Z,27.99
2022-08-21T11:51:23.094Z,28.15
2022-08-21T11:52:23.108Z,28.19
2022-08-21T11:53:23.062Z,28.25
2022-08-21T11:54:23.123Z,28.31
2022-08-21T11:55:23.835Z,28.30
2022-08-21T11:56:23.027Z,28.30
2022-08-21T11:57:23.009Z,28.30
2022-08-21T11:58:23.006Z,28.31
2022-08-21T11:59:23.033Z,28.34
2022-08-21T12:00:22.989Z,28.39
2022-08-21T12:01:22.960Z,28.39
2022-08-21T12:02:22.983Z,28.41
2022-08-21T12:03:22.932Z,28.39
2022-08-21T12:04:22.967Z,28.37
2022-08-21T12:05:22.917Z,28.39
2022-08-21T12:06:24.484Z,28.44
2022-08-21T12:07:22.902Z,28.51
2022-08-21T12:08:22.951Z,28.58
2022-08-21T12:09:22.860Z,28.59
2022-08-21T12:10:22.867Z,28.41
2022-08-21T12:11:22.830Z,28.39
2022-08-21T12:12:22.843Z,28.29
2022-08-21T12:13:22.792Z,28.36
2022-08-21T12:14:22.811Z,28.41
2022-08-21T12:15:22.811Z,28.49
2022-08-21T12:16:22.777Z,28.58
2022-08-21T12:17:22.788Z,28.61
2022-08-21T12:18:22.754Z,28.67
2022-08-21T12:19:22.751Z,28.73
2022-08-21T12:20:22.744Z,28.77
2022-08-21T12:21:22.714Z,28.70
2022-08-21T12:22:22.695Z,28.62
2022-08-21T12:23:22.689Z,28.58
2022-08-21T12:24:22.691Z,28.64
2022-08-21T12:25:22.664Z,28.51
2022-08-21T12:26:22.931Z,28.33
2022-08-21T12:27:22.624Z,28.21
2022-08-21T12:28:22.628Z,28.29
2022-08-21T12:29:22.599Z,28.41
2022-08-21T12:30:22.586Z,28.40
2022-08-21T12:31:22.606Z,28.39
2022-08-21T12:32:22.592Z,28.41
2022-08-21T12:33:22.576Z,28.44
2022-08-21T12:34:22.586Z,28.48
2022-08-21T12:35:24.543Z,28.25
2022-08-21T12:36:22.544Z,28.03
2022-08-21T12:37:22.495Z,27.92
2022-08-21T12:38:22.476Z,27.93
2022-08-21T12:39:22.534Z,28.06
2022-08-21T12:40:22.561Z,28.24
2022-08-21T12:41:22.444Z,28.33
2022-08-21T12:42:22.431Z,28.37
2022-08-21T12:43:22.442Z,28.41
2022-08-21T12:44:22.409Z,28.52
2022-08-21T12:45:22.424Z,28.56
2022-08-21T12:46:22.407Z,28.59
2022-08-21T12:47:22.384Z,28.66
2022-08-21T12:48:24.202Z,28.68
2022-08-21T12:49:26.631Z,28.70
2022-08-21T12:50:22.339Z,28.52
2022-08-21T12:51:22.307Z,28.49
2022-08-21T12:52:22.310Z,28.51